sensor_id;sensor_type;location;lat;lon;timestamp;pressure;altitude;pressure_sealevel;temperature;humidity
40948;BME280;49382;-25.924;28.194;2023-04-25T00:02:24;85227.49;;;19.73;27.30
40948;BME280;49382;-25.924;28.194;2023-04-25T00:04:49;85227.62;;;20.14;26.73
40948;BME280;49382;-25.924;28.194;2023-04-25T00:07:14;85227.05;;;20.01;26.44
40948;BME280;49382;-25.924;28.194;2023-04-25T00:09:41;85233.31;;;19.71;26.14
40948;BME280;49382;-25.924;28.194;2023-04-25T00:12:06;85229.67;;;19.34;27.20
40948;BME280;49382;-25.924;28.194;2023-04-25T00:16:56;85224.90;;;19.96;26.45
40948;BME280;49382;-25.924;28.194;2023-04-25T00:19:22;85217.42;;;19.76;27.01
40948;BME280;49382;-25.924;28.194;2023-04-25T00:21:47;85221.74;;;19.87;26.68
40948;BME280;49382;-25.924;28.194;2023-04-25T00:24:13;85220.34;;;19.63;27.19
40948;BME280;49382;-25.924;28.194;2023-04-25T00:26:38;85220.29;;;20.23;27.10
40948;BME280;49382;-25.924;28.194;2023-04-25T00:29:04;85220.15;;;19.61;28.05
40948;BME280;49382;-25.924;28.194;2023-04-25T00:31:29;85219.16;;;20.07;27.80
40948;BME280;49382;-25.924;28.194;2023-04-25T00:33:55;85219.53;;;20.53;26.44
40948;BME280;49382;-25.924;28.194;2023-04-25T00:36:20;85217.29;;;20.26;26.43
40948;BME280;49382;-25.924;28.194;2023-04-25T00:38:45;85217.36;;;20.20;26.02
40948;BME280;49382;-25.924;28.194;2023-04-25T00:41:10;85224.20;;;19.97;27.88
40948;BME280;49382;-25.924;28.194;2023-04-25T00:43:37;85218.30;;;20.43;26.70
40948;BME280;49382;-25.924;28.194;2023-04-25T00:46:02;85223.72;;;19.92;27.19
40948;BME280;49382;-25.924;28.194;2023-04-25T00:48:27;85221.69;;;19.35;27.67
40948;BME280;49382;-25.924;28.194;2023-04-25T00:50:53;85222.15;;;20.24;25.57
40948;BME280;49382;-25.924;28.194;2023-04-25T00:53:18;85217.51;;;20.20;25.37
40948;BME280;49382;-25.924;28.194;2023-04-25T00:55:43;85222.26;;;19.74;27.89
40948;BME280;49382;-25.924;28.194;2023-04-25T00:58:09;85229.96;;;19.65;28.09
40948;BME280;49382;-25.924;28.194;2023-04-25T01:00:35;85233.49;;;19.54;26.91
40948;BME280;49382;-25.924;28.194;2023-04-25T01:03:01;85244.05;;;19.16;27.02
40948;BME280;49382;-25.924;28.194;2023-04-25T01:05:26;85249.65;;;18.28;27.72
40948;BME280;49382;-25.924;28.194;2023-04-25T01:07:51;85248.38;;;19.50;26.57
40948;BME280;49382;-25.924;28.194;2023-04-25T01:10:17;85244.96;;;19.97;26.58
40948;BME280;49382;-25.924;28.194;2023-04-25T01:12:42;85250.41;;;20.55;26.53
40948;BME280;49382;-25.924;28.194;2023-04-25T01:15:08;85243.62;;;20.20;26.64
40948;BME280;49382;-25.924;28.194;2023-04-25T01:17:35;85242.81;;;21.04;26.25
40948;BME280;49382;-25.924;28.194;2023-04-25T01:19:58;85236.24;;;21.09;26.32
40948;BME280;49382;-25.924;28.194;2023-04-25T01:22:23;85234.94;;;20.78;26.93
40948;BME280;49382;-25.924;28.194;2023-04-25T01:24:49;85232.84;;;21.01;26.95
40948;BME280;49382;-25.924;28.194;2023-04-25T01:29:40;85230.46;;;20.02;28.38
40948;BME280;49382;-25.924;28.194;2023-04-25T01:32:06;85239.15;;;20.47;27.52
40948;BME280;49382;-25.924;28.194;2023-04-25T01:34:31;85241.86;;;20.75;27.65
40948;BME280;49382;-25.924;28.194;2023-04-25T01:36:56;85245.08;;;20.65;28.86
40948;BME280;49382;-25.924;28.194;2023-04-25T01:39:22;85252.70;;;20.34;27.93
40948;BME280;49382;-25.924;28.194;2023-04-25T01:41:48;85260.97;;;20.04;30.01
40948;BME280;49382;-25.924;28.194;2023-04-25T01:44:13;85260.91;;;20.30;29.33
40948;BME280;49382;-25.924;28.194;2023-04-25T01:46:38;85260.63;;;20.23;29.85
40948;BME280;49382;-25.924;28.194;2023-04-25T01:49:09;85265.95;;;20.37;28.91
40948;BME280;49382;-25.924;28.194;2023-04-25T01:51:30;85270.11;;;20.80;28.29
40948;BME280;49382;-25.924;28.194;2023-04-25T01:53:54;85275.27;;;20.68;28.05
40948;BME280;49382;-25.924;28.194;2023-04-25T01:56:19;85268.28;;;20.56;29.29
40948;BME280;49382;-25.924;28.194;2023-04-25T01:58:44;85265.03;;;19.99;29.26
40948;BME280;49382;-25.924;28.194;2023-04-25T02:01:10;85264.83;;;19.46;30.28
40948;BME280;49382;-25.924;28.194;2023-04-25T02:03:37;85263.30;;;19.84;31.26
40948;BME280;49382;-25.924;28.194;2023-04-25T02:06:00;85259.18;;;19.55;30.61
40948;BME280;49382;-25.924;28.194;2023-04-25T02:08:26;85257.02;;;20.33;30.20
40948;BME280;49382;-25.924;28.194;2023-04-25T02:10:51;85255.65;;;20.32;30.05
40948;BME280;49382;-25.924;28.194;2023-04-25T02:13:17;85247.54;;;20.78;29.75
40948;BME280;49382;-25.924;28.194;2023-04-25T02:15:42;85241.69;;;20.83;29.63
40948;BME280;49382;-25.924;28.194;2023-04-25T02:18:08;85240.23;;;20.71;29.79
40948;BME280;49382;-25.924;28.194;2023-04-25T02:20:34;85241.88;;;20.76;29.17
40948;BME280;49382;-25.924;28.194;2023-04-25T02:22:58;85250.54;;;20.72;29.48
40948;BME280;49382;-25.924;28.194;2023-04-25T02:25:24;85253.96;;;20.41;30.30
40948;BME280;49382;-25.924;28.194;2023-04-25T02:27:50;85250.19;;;20.59;30.31
40948;BME280;49382;-25.924;28.194;2023-04-25T02:30:15;85251.13;;;20.75;30.87
40948;BME280;49382;-25.924;28.194;2023-04-25T02:32:40;85251.09;;;20.41;30.50
40948;BME280;49382;-25.924;28.194;2023-04-25T02:35:06;85255.48;;;19.85;31.97
40948;BME280;49382;-25.924;28.194;2023-04-25T02:37:31;85260.50;;;19.94;31.43
40948;BME280;49382;-25.924;28.194;2023-04-25T02:39:56;85262.47;;;19.22;32.63
40948;BME280;49382;-25.924;28.194;2023-04-25T02:42:21;85268.40;;;19.16;32.77
40948;BME280;49382;-25.924;28.194;2023-04-25T02:44:47;85268.37;;;19.50;32.53
40948;BME280;49382;-25.924;28.194;2023-04-25T02:47:12;85271.78;;;20.27;31.60
40948;BME280;49382;-25.924;28.194;2023-04-25T02:49:38;85272.89;;;20.02;31.71
40948;BME280;49382;-25.924;28.194;2023-04-25T02:52:03;85272.46;;;20.08;31.75
40948;BME280;49382;-25.924;28.194;2023-04-25T02:54:28;85267.83;;;19.92;31.55
40948;BME280;49382;-25.924;28.194;2023-04-25T02:56:54;85271.64;;;19.73;31.71
40948;BME280;49382;-25.924;28.194;2023-04-25T02:59:20;85274.27;;;19.85;31.49
40948;BME280;49382;-25.924;28.194;2023-04-25T03:04:16;85272.92;;;19.87;31.22
40948;BME280;49382;-25.924;28.194;2023-04-25T03:06:36;85271.82;;;20.38;30.26
40948;BME280;49382;-25.924;28.194;2023-04-25T03:09:01;85273.00;;;20.48;29.57
40948;BME280;49382;-25.924;28.194;2023-04-25T03:11:26;85278.27;;;20.83;29.01
40948;BME280;49382;-25.924;28.194;2023-04-25T03:13:52;85281.51;;;20.91;28.76
40948;BME280;49382;-25.924;28.194;2023-04-25T03:16:18;85280.12;;;20.92;28.95
40948;BME280;49382;-25.924;28.194;2023-04-25T03:18:43;85279.93;;;20.80;28.78
40948;BME280;49382;-25.924;28.194;2023-04-25T03:21:09;85280.31;;;20.96;29.08
40948;BME280;49382;-25.924;28.194;2023-04-25T03:23:34;85280.58;;;19.79;31.06
40948;BME280;49382;-25.924;28.194;2023-04-25T03:26:00;85278.56;;;19.70;32.75
40948;BME280;49382;-25.924;28.194;2023-04-25T03:28:25;85272.45;;;19.71;32.07
40948;BME280;49382;-25.924;28.194;2023-04-25T03:30:52;85273.02;;;20.20;30.92
40948;BME280;49382;-25.924;28.194;2023-04-25T03:33:16;85273.62;;;20.61;29.96
40948;BME280;49382;-25.924;28.194;2023-04-25T03:35:41;85276.59;;;20.64;30.04
40948;BME280;49382;-25.924;28.194;2023-04-25T03:38:06;85277.26;;;19.98;30.59
40948;BME280;49382;-25.924;28.194;2023-04-25T03:40:32;85281.05;;;20.65;30.00
40948;BME280;49382;-25.924;28.194;2023-04-25T03:42:57;85283.68;;;20.50;29.82
40948;BME280;49382;-25.924;28.194;2023-04-25T03:45:22;85286.39;;;20.23;30.22
40948;BME280;49382;-25.924;28.194;2023-04-25T03:47:48;85285.05;;;19.84;31.17
40948;BME280;49382;-25.924;28.194;2023-04-25T03:50:13;85285.20;;;20.13;30.77
40948;BME280;49382;-25.924;28.194;2023-04-25T03:52:38;85287.57;;;20.18;30.96
40948;BME280;49382;-25.924;28.194;2023-04-25T03:55:04;85289.28;;;19.75;31.51
40948;BME280;49382;-25.924;28.194;2023-04-25T03:57:29;85289.56;;;19.38;32.05
40948;BME280;49382;-25.924;28.194;2023-04-25T03:59:54;85290.62;;;18.83;32.75
40948;BME280;49382;-25.924;28.194;2023-04-25T04:02:20;85296.81;;;18.92;32.94
40948;BME280;49382;-25.924;28.194;2023-04-25T04:04:46;85303.13;;;19.86;31.17
40948;BME280;49382;-25.924;28.194;2023-04-25T04:07:12;85306.96;;;18.94;32.37
40948;BME280;49382;-25.924;28.194;2023-04-25T04:09:37;85313.39;;;19.80;31.43
40948;BME280;49382;-25.924;28.194;2023-04-25T04:12:02;85312.15;;;19.06;32.36
40948;BME280;49382;-25.924;28.194;2023-04-25T04:14:27;85318.72;;;19.59;31.84
40948;BME280;49382;-25.924;28.194;2023-04-25T04:16:53;85316.64;;;19.64;32.05
40948;BME280;49382;-25.924;28.194;2023-04-25T04:19:18;85310.94;;;19.59;32.02
40948;BME280;49382;-25.924;28.194;2023-04-25T04:21:44;85311.56;;;19.59;31.99
40948;BME280;49382;-25.924;28.194;2023-04-25T04:24:09;85314.12;;;19.80;31.43
40948;BME280;49382;-25.924;28.194;2023-04-25T04:26:35;85320.28;;;20.24;30.71
40948;BME280;49382;-25.924;28.194;2023-04-25T04:29:00;85325.26;;;19.60;31.79
40948;BME280;49382;-25.924;28.194;2023-04-25T04:31:26;85324.80;;;19.33;31.84
40948;BME280;49382;-25.924;28.194;2023-04-25T04:33:52;85325.32;;;18.94;32.31
40948;BME280;49382;-25.924;28.194;2023-04-25T04:36:17;85327.56;;;18.62;32.45
40948;BME280;49382;-25.924;28.194;2023-04-25T04:38:42;85331.23;;;18.07;34.31
40948;BME280;49382;-25.924;28.194;2023-04-25T04:41:08;85333.30;;;18.41;34.01
40948;BME280;49382;-25.924;28.194;2023-04-25T04:43:33;85335.19;;;18.35;33.92
40948;BME280;49382;-25.924;28.194;2023-04-25T04:46:00;85333.71;;;18.84;33.80
40948;BME280;49382;-25.924;28.194;2023-04-25T04:48:24;85335.47;;;18.19;34.48
40948;BME280;49382;-25.924;28.194;2023-04-25T04:50:50;85336.53;;;18.10;34.80
40948;BME280;49382;-25.924;28.194;2023-04-25T04:53:15;85337.56;;;18.48;34.11
40948;BME280;49382;-25.924;28.194;2023-04-25T04:55:41;85333.26;;;18.91;34.18
40948;BME280;49382;-25.924;28.194;2023-04-25T04:58:06;85327.00;;;18.94;33.41
40948;BME280;49382;-25.924;28.194;2023-04-25T05:00:31;85337.83;;;18.57;33.79
40948;BME280;49382;-25.924;28.194;2023-04-25T05:02:57;85339.09;;;19.10;33.14
40948;BME280;49382;-25.924;28.194;2023-04-25T05:05:22;85340.65;;;19.18;32.88
40948;BME280;49382;-25.924;28.194;2023-04-25T05:07:47;85339.06;;;19.52;32.57
40948;BME280;49382;-25.924;28.194;2023-04-25T05:10:12;85342.13;;;19.20;34.68
40948;BME280;49382;-25.924;28.194;2023-04-25T05:12:38;85347.84;;;19.08;36.30
40948;BME280;49382;-25.924;28.194;2023-04-25T05:15:04;85355.20;;;18.57;36.35
40948;BME280;49382;-25.924;28.194;2023-04-25T05:17:29;85351.72;;;19.29;36.06
40948;BME280;49382;-25.924;28.194;2023-04-25T05:19:54;85350.39;;;19.18;35.65
40948;BME280;49382;-25.924;28.194;2023-04-25T05:22:19;85351.33;;;20.13;34.34
40948;BME280;49382;-25.924;28.194;2023-04-25T05:24:44;85352.71;;;20.63;34.30
40948;BME280;49382;-25.924;28.194;2023-04-25T05:27:10;85353.66;;;20.59;33.58
40948;BME280;49382;-25.924;28.194;2023-04-25T05:29:35;85356.47;;;21.48;32.18
40948;BME280;49382;-25.924;28.194;2023-04-25T05:32:01;85355.67;;;21.27;31.11
40948;BME280;49382;-25.924;28.194;2023-04-25T05:34:26;85361.62;;;21.18;32.55
40948;BME280;49382;-25.924;28.194;2023-04-25T05:36:51;85361.62;;;20.96;32.39
40948;BME280;49382;-25.924;28.194;2023-04-25T05:39:17;85356.69;;;21.01;32.73
40948;BME280;49382;-25.924;28.194;2023-04-25T05:41:42;85359.73;;;21.61;32.71
40948;BME280;49382;-25.924;28.194;2023-04-25T05:44:08;85362.07;;;21.24;32.44
40948;BME280;49382;-25.924;28.194;2023-04-25T05:46:33;85355.84;;;21.51;31.45
40948;BME280;49382;-25.924;28.194;2023-04-25T05:48:58;85355.18;;;21.55;31.45
40948;BME280;49382;-25.924;28.194;2023-04-25T05:51:24;85360.99;;;21.91;30.55
40948;BME280;49382;-25.924;28.194;2023-04-25T05:53:49;85366.44;;;21.72;31.37
40948;BME280;49382;-25.924;28.194;2023-04-25T05:56:14;85374.44;;;22.26;29.56
40948;BME280;49382;-25.924;28.194;2023-04-25T05:58:39;85380.02;;;22.69;29.52
40948;BME280;49382;-25.924;28.194;2023-04-25T06:01:05;85382.60;;;22.14;29.64
40948;BME280;49382;-25.924;28.194;2023-04-25T06:03:30;85383.64;;;22.33;29.62
40948;BME280;49382;-25.924;28.194;2023-04-25T06:05:56;85386.75;;;22.39;30.46
40948;BME280;49382;-25.924;28.194;2023-04-25T06:08:21;85387.36;;;22.26;29.49
40948;BME280;49382;-25.924;28.194;2023-04-25T06:10:46;85386.70;;;22.69;28.57
40948;BME280;49382;-25.924;28.194;2023-04-25T06:13:11;85394.42;;;22.97;29.95
40948;BME280;49382;-25.924;28.194;2023-04-25T06:15:36;85399.38;;;22.29;30.37
40948;BME280;49382;-25.924;28.194;2023-04-25T06:18:02;85403.41;;;22.10;30.12
40948;BME280;49382;-25.924;28.194;2023-04-25T06:20:28;85408.20;;;22.18;30.17
40948;BME280;49382;-25.924;28.194;2023-04-25T06:22:53;85406.49;;;21.96;32.65
40948;BME280;49382;-25.924;28.194;2023-04-25T06:25:18;85410.82;;;22.28;31.36
40948;BME280;49382;-25.924;28.194;2023-04-25T06:27:44;85416.75;;;22.55;30.33
40948;BME280;49382;-25.924;28.194;2023-04-25T06:30:10;85420.56;;;22.37;31.04
40948;BME280;49382;-25.924;28.194;2023-04-25T06:32:34;85423.55;;;21.96;32.15
40948;BME280;49382;-25.924;28.194;2023-04-25T06:35:00;85429.87;;;22.71;30.83
40948;BME280;49382;-25.924;28.194;2023-04-25T06:37:25;85440.13;;;22.59;30.00
40948;BME280;49382;-25.924;28.194;2023-04-25T06:39:52;85442.99;;;22.54;31.75
40948;BME280;49382;-25.924;28.194;2023-04-25T06:42:16;85449.84;;;23.71;29.28
40948;BME280;49382;-25.924;28.194;2023-04-25T06:44:42;85452.78;;;23.30;29.83
40948;BME280;49382;-25.924;28.194;2023-04-25T06:47:07;85449.45;;;24.15;29.30
40948;BME280;49382;-25.924;28.194;2023-04-25T06:49:32;85445.02;;;24.22;28.59
40948;BME280;49382;-25.924;28.194;2023-04-25T06:51:58;85445.85;;;24.29;28.67
40948;BME280;49382;-25.924;28.194;2023-04-25T06:54:24;85452.29;;;24.78;28.35
40948;BME280;49382;-25.924;28.194;2023-04-25T06:56:49;85451.05;;;24.78;28.06
40948;BME280;49382;-25.924;28.194;2023-04-25T06:59:14;85456.59;;;25.34;28.72
40948;BME280;49382;-25.924;28.194;2023-04-25T07:01:40;85460.68;;;25.17;27.85
40948;BME280;49382;-25.924;28.194;2023-04-25T07:04:06;85467.05;;;25.57;27.28
40948;BME280;49382;-25.924;28.194;2023-04-25T07:06:32;85470.87;;;25.42;28.69
40948;BME280;49382;-25.924;28.194;2023-04-25T07:08:57;85471.13;;;25.37;26.98
40948;BME280;49382;-25.924;28.194;2023-04-25T07:11:22;85470.99;;;24.99;26.50
40948;BME280;49382;-25.924;28.194;2023-04-25T07:13:47;85472.59;;;25.27;26.34
40948;BME280;49382;-25.924;28.194;2023-04-25T07:16:12;85470.68;;;25.81;26.10
40948;BME280;49382;-25.924;28.194;2023-04-25T07:18:38;85468.67;;;26.04;25.31
40948;BME280;49382;-25.924;28.194;2023-04-25T07:21:04;85464.19;;;26.81;24.59
40948;BME280;49382;-25.924;28.194;2023-04-25T07:23:29;85467.27;;;26.37;24.21
40948;BME280;49382;-25.924;28.194;2023-04-25T07:25:55;85471.30;;;26.64;23.92
40948;BME280;49382;-25.924;28.194;2023-04-25T07:28:20;85468.34;;;26.21;23.24
40948;BME280;49382;-25.924;28.194;2023-04-25T07:30:45;85469.80;;;26.52;23.42
40948;BME280;49382;-25.924;28.194;2023-04-25T07:33:11;85472.56;;;26.51;24.55
40948;BME280;49382;-25.924;28.194;2023-04-25T07:35:37;85479.90;;;27.47;24.93
40948;BME280;49382;-25.924;28.194;2023-04-25T07:38:03;85480.91;;;27.55;21.26
40948;BME280;49382;-25.924;28.194;2023-04-25T07:40:28;85478.58;;;28.71;21.57
40948;BME280;49382;-25.924;28.194;2023-04-25T07:42:54;85474.55;;;28.87;19.93
40948;BME280;49382;-25.924;28.194;2023-04-25T07:45:20;85474.54;;;29.81;19.96
40948;BME280;49382;-25.924;28.194;2023-04-25T07:47:45;85476.42;;;29.66;20.88
40948;BME280;49382;-25.924;28.194;2023-04-25T07:50:11;85472.79;;;29.73;21.78
40948;BME280;49382;-25.924;28.194;2023-04-25T07:52:35;85466.47;;;30.45;19.35
40948;BME280;49382;-25.924;28.194;2023-04-25T07:55:01;85465.48;;;30.68;18.44
40948;BME280;49382;-25.924;28.194;2023-04-25T07:57:26;85463.39;;;31.09;17.37
40948;BME280;49382;-25.924;28.194;2023-04-25T07:59:52;85461.52;;;31.28;17.84
40948;BME280;49382;-25.924;28.194;2023-04-25T08:02:17;85466.29;;;32.19;16.28
40948;BME280;49382;-25.924;28.194;2023-04-25T08:04:43;85467.14;;;32.37;16.11
40948;BME280;49382;-25.924;28.194;2023-04-25T08:07:09;85465.99;;;32.39;15.58
40948;BME280;49382;-25.924;28.194;2023-04-25T08:09:34;85463.70;;;32.36;16.61
40948;BME280;49382;-25.924;28.194;2023-04-25T08:12:00;85462.34;;;32.35;18.10
40948;BME280;49382;-25.924;28.194;2023-04-25T08:14:25;85466.02;;;37.84;13.40
40948;BME280;49382;-25.924;28.194;2023-04-25T08:16:52;85463.91;;;36.48;14.44
40948;BME280;49382;-25.924;28.194;2023-04-25T08:19:17;85462.25;;;37.17;13.83
40948;BME280;49382;-25.924;28.194;2023-04-25T08:21:42;85461.26;;;39.92;11.32
40948;BME280;49382;-25.924;28.194;2023-04-25T08:24:08;85459.72;;;44.85;9.68
40948;BME280;49382;-25.924;28.194;2023-04-25T08:26:33;85453.41;;;42.64;10.04
40948;BME280;49382;-25.924;28.194;2023-04-25T08:28:59;85450.67;;;39.47;11.26
40948;BME280;49382;-25.924;28.194;2023-04-25T08:31:25;85446.18;;;41.22;10.24
40948;BME280;49382;-25.924;28.194;2023-04-25T08:33:51;85451.20;;;38.98;11.61
40948;BME280;49382;-25.924;28.194;2023-04-25T08:36:16;85449.21;;;39.16;12.05
40948;BME280;49382;-25.924;28.194;2023-04-25T08:38:42;85445.91;;;38.83;13.10
40948;BME280;49382;-25.924;28.194;2023-04-25T08:41:08;85442.65;;;39.15;13.36
40948;BME280;49382;-25.924;28.194;2023-04-25T08:43:35;85444.23;;;38.33;14.14
40948;BME280;49382;-25.924;28.194;2023-04-25T08:46:00;85443.26;;;36.30;15.09
40948;BME280;49382;-25.924;28.194;2023-04-25T08:48:27;85446.79;;;35.95;14.95
40948;BME280;49382;-25.924;28.194;2023-04-25T08:50:52;85439.73;;;34.12;16.41
40948;BME280;49382;-25.924;28.194;2023-04-25T08:53:17;85430.64;;;34.84;15.84
40948;BME280;49382;-25.924;28.194;2023-04-25T08:55:42;85431.51;;;34.12;16.51
40948;BME280;49382;-25.924;28.194;2023-04-25T08:58:09;85430.64;;;33.80;16.28
40948;BME280;49382;-25.924;28.194;2023-04-25T09:00:33;85425.65;;;32.24;17.83
40948;BME280;49382;-25.924;28.194;2023-04-25T09:02:59;85420.12;;;32.75;18.51
40948;BME280;49382;-25.924;28.194;2023-04-25T09:05:25;85416.59;;;32.45;18.15
40948;BME280;49382;-25.924;28.194;2023-04-25T09:07:52;85420.87;;;31.88;19.11
40948;BME280;49382;-25.924;28.194;2023-04-25T09:10:16;85420.37;;;32.14;19.26
40948;BME280;49382;-25.924;28.194;2023-04-25T09:12:42;85418.83;;;32.55;19.10
40948;BME280;49382;-25.924;28.194;2023-04-25T09:15:10;85418.20;;;31.36;20.53
40948;BME280;49382;-25.924;28.194;2023-04-25T09:17:34;85412.74;;;30.65;20.74
40948;BME280;49382;-25.924;28.194;2023-04-25T09:20:08;85408.06;;;29.89;21.86
40948;BME280;49382;-25.924;28.194;2023-04-25T09:22:25;85415.21;;;31.61;20.13
40948;BME280;49382;-25.924;28.194;2023-04-25T09:24:51;85411.83;;;31.37;21.35
40948;BME280;49382;-25.924;28.194;2023-04-25T09:27:19;85410.57;;;31.53;20.70
40948;BME280;49382;-25.924;28.194;2023-04-25T09:29:42;85411.44;;;31.19;20.68
40948;BME280;49382;-25.924;28.194;2023-04-25T09:32:15;85406.39;;;29.88;21.29
40948;BME280;49382;-25.924;28.194;2023-04-25T09:34:39;85405.42;;;29.93;20.91
40948;BME280;49382;-25.924;28.194;2023-04-25T09:37:03;85407.23;;;30.66;20.94
40948;BME280;49382;-25.924;28.194;2023-04-25T09:39:29;85399.95;;;30.47;20.95
40948;BME280;49382;-25.924;28.194;2023-04-25T09:41:54;85395.56;;;31.55;20.30
40948;BME280;49382;-25.924;28.194;2023-04-25T09:44:23;85393.60;;;30.75;20.86
40948;BME280;49382;-25.924;28.194;2023-04-25T09:46:42;85390.46;;;29.54;21.69
40948;BME280;49382;-25.924;28.194;2023-04-25T09:49:08;85392.89;;;29.67;23.09
40948;BME280;49382;-25.924;28.194;2023-04-25T09:51:34;85391.97;;;30.61;21.99
40948;BME280;49382;-25.924;28.194;2023-04-25T09:54:00;85389.36;;;31.06;22.58
40948;BME280;49382;-25.924;28.194;2023-04-25T09:56:27;85387.28;;;30.32;22.48
40948;BME280;49382;-25.924;28.194;2023-04-25T09:58:53;85386.87;;;30.78;21.95
40948;BME280;49382;-25.924;28.194;2023-04-25T10:01:17;85386.27;;;31.13;22.02
40948;BME280;49382;-25.924;28.194;2023-04-25T10:03:43;85385.60;;;31.60;21.11
40948;BME280;49382;-25.924;28.194;2023-04-25T10:06:11;85388.55;;;30.64;22.38
40948;BME280;49382;-25.924;28.194;2023-04-25T10:08:36;85383.33;;;29.58;22.73
40948;BME280;49382;-25.924;28.194;2023-04-25T10:11:01;85383.76;;;30.28;22.41
40948;BME280;49382;-25.924;28.194;2023-04-25T10:13:26;85382.04;;;30.79;21.71
40948;BME280;49382;-25.924;28.194;2023-04-25T10:15:53;85380.64;;;29.76;22.19
40948;BME280;49382;-25.924;28.194;2023-04-25T10:18:17;85381.58;;;29.18;22.89
40948;BME280;49382;-25.924;28.194;2023-04-25T10:20:43;85379.30;;;28.18;23.72
40948;BME280;49382;-25.924;28.194;2023-04-25T10:23:12;85368.66;;;29.85;23.06
40948;BME280;49382;-25.924;28.194;2023-04-25T10:25:35;85374.67;;;29.53;24.01
40948;BME280;49382;-25.924;28.194;2023-04-25T10:28:00;85364.27;;;29.18;24.38
40948;BME280;49382;-25.924;28.194;2023-04-25T10:30:25;85368.90;;;29.91;24.08
40948;BME280;49382;-25.924;28.194;2023-04-25T10:32:55;85366.84;;;29.90;24.20
40948;BME280;49382;-25.924;28.194;2023-04-25T10:35:18;85361.89;;;29.87;24.39
40948;BME280;49382;-25.924;28.194;2023-04-25T10:40:10;85370.39;;;29.36;23.13
40948;BME280;49382;-25.924;28.194;2023-04-25T10:42:34;85365.94;;;29.66;22.96
40948;BME280;49382;-25.924;28.194;2023-04-25T10:45:04;85357.11;;;29.12;23.41
40948;BME280;49382;-25.924;28.194;2023-04-25T10:47:34;85361.34;;;29.77;23.25
40948;BME280;49382;-25.924;28.194;2023-04-25T10:49:51;85362.78;;;30.53;22.60
40948;BME280;49382;-25.924;28.194;2023-04-25T10:52:17;85360.67;;;28.28;24.74
40948;BME280;49382;-25.924;28.194;2023-04-25T10:54:43;85354.42;;;26.51;26.61
40948;BME280;49382;-25.924;28.194;2023-04-25T10:57:06;85353.95;;;29.29;24.24
40948;BME280;49382;-25.924;28.194;2023-04-25T10:59:31;85354.09;;;29.60;23.69
40948;BME280;49382;-25.924;28.194;2023-04-25T11:01:57;85352.02;;;29.61;23.25
40948;BME280;49382;-25.924;28.194;2023-04-25T11:04:23;85350.04;;;30.54;22.89
40948;BME280;49382;-25.924;28.194;2023-04-25T11:07:00;85349.51;;;29.93;23.11
40948;BME280;49382;-25.924;28.194;2023-04-25T11:09:13;85341.21;;;30.15;22.52
40948;BME280;49382;-25.924;28.194;2023-04-25T11:11:37;85333.80;;;29.39;22.96
40948;BME280;49382;-25.924;28.194;2023-04-25T11:14:02;85334.30;;;30.28;23.06
40948;BME280;49382;-25.924;28.194;2023-04-25T11:16:28;85331.51;;;29.65;23.72
40948;BME280;49382;-25.924;28.194;2023-04-25T11:18:56;85329.62;;;29.30;24.11
40948;BME280;49382;-25.924;28.194;2023-04-25T11:21:20;85327.10;;;29.27;23.37
40948;BME280;49382;-25.924;28.194;2023-04-25T11:23:46;85329.01;;;29.21;23.40
40948;BME280;49382;-25.924;28.194;2023-04-25T11:26:11;85323.03;;;28.63;23.92
40948;BME280;49382;-25.924;28.194;2023-04-25T11:28:36;85320.30;;;29.17;23.67
40948;BME280;49382;-25.924;28.194;2023-04-25T11:31:05;85321.00;;;28.41;24.01
40948;BME280;49382;-25.924;28.194;2023-04-25T11:33:27;85317.49;;;28.60;23.23
40948;BME280;49382;-25.924;28.194;2023-04-25T11:35:54;85311.37;;;29.26;23.12
40948;BME280;49382;-25.924;28.194;2023-04-25T11:38:18;85307.69;;;29.70;22.69
40948;BME280;49382;-25.924;28.194;2023-04-25T11:40:44;85306.56;;;29.15;23.85
40948;BME280;49382;-25.924;28.194;2023-04-25T11:43:09;85303.39;;;29.00;23.49
40948;BME280;49382;-25.924;28.194;2023-04-25T11:45:37;85303.17;;;29.50;23.15
40948;BME280;49382;-25.924;28.194;2023-04-25T11:48:02;85298.62;;;28.31;23.27
40948;BME280;49382;-25.924;28.194;2023-04-25T11:50:28;85296.07;;;28.15;23.49
40948;BME280;49382;-25.924;28.194;2023-04-25T11:52:55;85295.94;;;27.35;24.22
40948;BME280;49382;-25.924;28.194;2023-04-25T11:55:19;85294.44;;;27.80;24.17
40948;BME280;49382;-25.924;28.194;2023-04-25T11:57:45;85288.82;;;27.59;24.65
40948;BME280;49382;-25.924;28.194;2023-04-25T12:00:12;85287.91;;;27.79;24.19
40948;BME280;49382;-25.924;28.194;2023-04-25T12:02:35;85284.56;;;28.06;24.10
40948;BME280;49382;-25.924;28.194;2023-04-25T12:05:00;85280.75;;;28.35;24.02
40948;BME280;49382;-25.924;28.194;2023-04-25T12:07:29;85277.20;;;27.81;24.14
40948;BME280;49382;-25.924;28.194;2023-04-25T12:09:52;85276.27;;;27.97;24.11
40948;BME280;49382;-25.924;28.194;2023-04-25T12:12:16;85275.96;;;27.56;24.75
40948;BME280;49382;-25.924;28.194;2023-04-25T12:14:47;85273.61;;;27.40;25.04
40948;BME280;49382;-25.924;28.194;2023-04-25T12:17:07;85271.93;;;27.54;24.63
40948;BME280;49382;-25.924;28.194;2023-04-25T12:19:34;85268.92;;;29.04;24.01
40948;BME280;49382;-25.924;28.194;2023-04-25T12:21:58;85268.51;;;28.26;24.24
40948;BME280;49382;-25.924;28.194;2023-04-25T12:24:24;85265.35;;;28.38;23.88
40948;BME280;49382;-25.924;28.194;2023-04-25T12:26:51;85261.95;;;28.94;23.77
40948;BME280;49382;-25.924;28.194;2023-04-25T12:29:17;85265.34;;;28.94;23.61
40948;BME280;49382;-25.924;28.194;2023-04-25T12:31:39;85266.30;;;28.74;23.88
40948;BME280;49382;-25.924;28.194;2023-04-25T12:34:05;85272.84;;;27.96;24.37
40948;BME280;49382;-25.924;28.194;2023-04-25T12:36:31;85270.06;;;27.85;23.87
40948;BME280;49382;-25.924;28.194;2023-04-25T12:38:56;85265.02;;;27.20;24.85
40948;BME280;49382;-25.924;28.194;2023-04-25T12:41:21;85269.87;;;27.57;24.92